createdAt,value
2022-08-26T00:08:27.312Z,4.30
2022-08-26T00:11:30.187Z,4.57
2022-08-26T00:14:34.861Z,4.60
2022-08-26T00:17:41.358Z,4.33
2022-08-26T00:20:48.185Z,4.80
2022-08-26T00:23:49.644Z,4.75
2022-08-26T00:26:52.362Z,4.65
2022-08-26T00:29:58.043Z,4.53
2022-08-26T00:33:40.142Z,5.30
2022-08-26T00:37:34.313Z,4.95
2022-08-26T00:41:15.218Z,4.75
2022-08-26T00:48:01.340Z,6.43
2022-08-26T00:51:29.783Z,4.47
2022-08-26T00:55:03.974Z,4.65
2022-08-26T00:58:46.487Z,4.30
2022-08-26T01:02:25.339Z,4.40
2022-08-26T01:05:47.371Z,4.28
2022-08-26T01:17:49.623Z,4.57
2022-08-26T01:21:36.778Z,4.68
2022-08-26T01:25:16.507Z,4.30
2022-08-26T01:41:55.311Z,4.25
2022-08-26T01:45:22.998Z,5.37
2022-08-26T01:48:45.767Z,4.50
2022-08-26T01:52:11.935Z,4.87
2022-08-26T01:55:36.950Z,4.82
2022-08-26T01:58:42.766Z,4.25
2022-08-26T02:01:44.622Z,4.82
2022-08-26T02:04:52.524Z,4.30
2022-08-26T02:07:54.402Z,4.70
2022-08-26T02:10:55.866Z,4.35
2022-08-26T02:14:03.725Z,4.40
2022-08-26T02:17:05.501Z,4.50
2022-08-26T02:20:13.348Z,4.97
2022-08-26T02:23:53.572Z,4.35
2022-08-26T02:27:21.325Z,5.22
2022-08-26T02:34:31.368Z,4.40
2022-08-26T02:37:53.322Z,4.80
2022-08-26T02:41:15.483Z,4.90
2022-08-26T02:44:55.882Z,4.50
2022-08-26T02:47:57.385Z,4.95
2022-08-26T02:51:01.210Z,4.68
2022-08-26T02:54:02.941Z,4.97
2022-08-26T03:07:44.483Z,5.62
2022-08-26T03:11:06.484Z,5.20
2022-08-26T03:14:28.150Z,5.03
2022-08-26T03:17:51.988Z,5.55
2022-08-26T03:21:16.800Z,5.43
2022-08-26T03:24:39.847Z,4.90
2022-08-26T03:28:02.110Z,6.07
2022-08-26T03:31:24.765Z,5.82
2022-08-26T03:39:28.471Z,6.07
2022-08-26T03:46:35.928Z,5.73
2022-08-26T03:50:07.371Z,5.60
2022-08-26T03:57:29.672Z,5.85
2022-08-26T04:01:13.904Z,5.95
2022-08-26T04:05:27.497Z,5.60
2022-08-26T04:12:47.766Z,5.32
2022-08-26T04:16:02.434Z,5.43
2022-08-26T04:26:59.626Z,5.07
2022-08-26T04:30:13.963Z,5.40
2022-08-26T04:41:15.263Z,5.37
2022-08-26T04:44:06.940Z,4.80
2022-08-26T04:45:30.813Z,5.10
2022-08-26T04:48:46.117Z,4.40
2022-08-26T04:52:46.044Z,4.72
2022-08-26T05:03:07.538Z,4.80
2022-08-26T05:07:09.736Z,4.90
2022-08-26T05:17:46.894Z,5.00
2022-08-26T05:20:56.178Z,4.78
2022-08-26T05:28:07.652Z,4.60
2022-08-26T05:32:00.645Z,4.32
2022-08-26T05:35:13.674Z,3.83
2022-08-26T05:39:02.344Z,4.03
2022-08-26T06:49:58.796Z,3.30
2022-08-26T06:53:50.920Z,3.65
2022-08-26T07:00:48.842Z,3.80
2022-08-26T07:03:52.912Z,3.90
2022-08-26T07:06:56.411Z,3.33
2022-08-26T07:10:07.124Z,3.70
2022-08-26T07:13:11.198Z,4.30
2022-08-26T07:16:16.952Z,3.42
2022-08-26T07:19:29.939Z,4.57
2022-08-26T07:22:33.020Z,4.03
2022-08-26T07:25:43.515Z,3.75
2022-08-26T07:48:55.089Z,3.70
2022-08-26T07:52:04.759Z,4.00
2022-08-26T07:55:11.804Z,3.53
2022-08-26T08:02:39.886Z,3.33
2022-08-26T08:06:44.800Z,3.00
2022-08-26T08:17:02.326Z,2.90
2022-08-26T08:20:27.977Z,3.25
2022-08-26T08:23:35.385Z,3.00
2022-08-26T08:27:00.899Z,3.60
2022-08-26T08:30:10.001Z,3.33
2022-08-26T08:33:18.571Z,3.00
2022-08-26T08:40:45.743Z,3.40
2022-08-26T08:43:53.758Z,3.00
2022-08-26T08:50:47.336Z,2.70
2022-08-26T08:53:54.635Z,3.08
2022-08-26T08:57:11.629Z,3.33
2022-08-26T09:00:17.796Z,4.10
2022-08-26T09:04:01.142Z,3.22
2022-08-26T09:07:13.757Z,3.63
2022-08-26T09:10:36.151Z,3.00
2022-08-26T09:13:39.727Z,3.30
2022-08-26T09:17:06.485Z,3.85
2022-08-26T09:20:38.414Z,3.78
2022-08-26T09:23:49.469Z,3.03
2022-08-26T09:26:51.438Z,3.00
2022-08-26T09:30:01.297Z,3.40
2022-08-26T09:33:15.977Z,3.28
2022-08-26T09:36:41.418Z,3.40
2022-08-26T09:39:43.215Z,3.37
2022-08-26T09:46:55.846Z,3.33
2022-08-26T09:54:30.467Z,3.55
2022-08-26T09:58:08.711Z,3.67
2022-08-26T10:01:30.481Z,3.25
2022-08-26T10:08:47.696Z,3.03
2022-08-26T10:16:49.876Z,2.93
2022-08-26T10:20:26.569Z,3.78
2022-08-26T10:28:29.740Z,4.18
2022-08-26T10:36:34.074Z,3.00
2022-08-26T10:40:32.815Z,3.60
2022-08-26T10:48:43.266Z,3.67
2022-08-26T10:52:12.331Z,3.47
2022-08-26T10:59:57.263Z,3.20
2022-08-26T11:07:24.454Z,3.60
2022-08-26T11:11:01.851Z,3.37
2022-08-26T11:18:54.954Z,3.55
2022-08-26T11:56:35.875Z,3.47
2022-08-26T11:59:41.663Z,3.53
2022-08-26T12:03:18.389Z,2.92
2022-08-26T12:06:47.934Z,3.00
2022-08-26T12:09:57.164Z,3.00
2022-08-26T12:13:00.946Z,3.60
2022-08-26T12:16:06.322Z,3.42
2022-08-26T12:19:23.992Z,2.95
2022-08-26T12:22:29.765Z,3.58
2022-08-26T12:25:32.932Z,3.07
2022-08-26T12:28:44.452Z,3.15
2022-08-26T12:38:53.718Z,3.15
2022-08-26T12:42:55.748Z,2.50
2022-08-26T12:58:40.894Z,3.20
2022-08-26T13:02:14.568Z,2.73
2022-08-26T13:05:41.115Z,3.28
2022-08-26T13:21:37.730Z,3.07
2022-08-26T13:24:44.174Z,3.22
2022-08-26T13:27:46.218Z,2.83
2022-08-26T14:22:32.803Z,2.78
2022-08-26T14:34:06.038Z,3.80
2022-08-26T16:05:27.381Z,3.03
2022-08-26T16:08:36.528Z,3.40
2022-08-26T16:11:41.213Z,2.85
2022-08-26T16:15:05.117Z,2.90
2022-08-26T16:18:23.569Z,3.15
2022-08-26T16:41:57.475Z,3.50
2022-08-26T16:45:18.476Z,3.45
2022-08-26T17:38:46.392Z,3.05
2022-08-26T17:41:49.870Z,3.30
2022-08-26T17:44:51.368Z,3.10
2022-08-26T17:47:55.494Z,3.15
2022-08-26T17:51:18.733Z,2.60
2022-08-26T17:54:40.149Z,3.35
2022-08-26T17:57:42.306Z,3.83
2022-08-26T18:00:46.652Z,3.25
2022-08-26T18:04:08.520Z,3.20
2022-08-26T18:07:52.321Z,3.40
2022-08-26T18:11:33.918Z,3.55
2022-08-26T18:14:55.637Z,3.58
2022-08-26T18:17:58.439Z,2.87
2022-08-26T18:21:01.557Z,3.37
2022-08-26T18:24:04.220Z,3.40
2022-08-26T18:27:06.144Z,4.12
2022-08-26T18:30:29.233Z,3.83
2022-08-26T18:34:05.343Z,3.00
2022-08-26T19:01:03.915Z,2.70
2022-08-26T19:04:46.108Z,3.42
2022-08-26T19:08:27.753Z,3.70
2022-08-26T19:11:50.423Z,3.67
2022-08-26T19:15:12.812Z,4.20
2022-08-26T19:18:15.119Z,3.93
2022-08-26T19:21:16.618Z,3.83
2022-08-26T19:24:19.007Z,3.95
2022-08-26T19:27:20.464Z,3.17
2022-08-26T19:30:22.462Z,3.85
2022-08-26T19:33:25.271Z,3.80
2022-08-26T19:36:28.376Z,3.47
2022-08-26T19:39:30.123Z,3.62
2022-08-26T19:42:52.463Z,3.55
2022-08-26T19:46:18.283Z,3.70
2022-08-26T19:49:59.572Z,3.63
2022-08-26T19:53:03.448Z,4.00
2022-08-26T19:56:04.999Z,4.37
2022-08-26T19:59:06.443Z,3.87
2022-08-26T20:02:11.165Z,4.00
2022-08-26T20:05:14.494Z,3.47
2022-08-26T20:08:20.465Z,3.47
2022-08-26T20:11:24.515Z,4.12
2022-08-26T20:28:39.288Z,3.83
2022-08-26T20:32:00.986Z,3.17
2022-08-26T20:35:23.538Z,3.30
2022-08-26T20:38:44.956Z,3.23
2022-08-26T20:41:47.852Z,3.97
2022-08-26T20:44:54.262Z,3.40
2022-08-26T20:47:56.553Z,3.28
2022-08-26T20:54:37.810Z,3.30
2022-08-26T20:58:20.857Z,3.67
2022-08-26T21:01:44.893Z,3.50
2022-08-26T21:05:06.963Z,3.22
2022-08-26T21:08:09.306Z,3.87
2022-08-26T21:11:13.247Z,3.50
2022-08-26T21:14:16.835Z,3.40
2022-08-26T21:17:18.767Z,4.07
2022-08-26T21:20:20.368Z,3.95
2022-08-26T21:23:23.136Z,3.37
2022-08-26T21:26:29.791Z,4.10
2022-08-26T21:29:32.323Z,3.78
2022-08-26T21:32:54.773Z,3.55
2022-08-26T21:36:36.164Z,3.40
2022-08-26T21:39:59.324Z,3.45
2022-08-26T21:43:25.939Z,3.60
2022-08-26T21:46:57.050Z,3.60
2022-08-26T21:50:18.535Z,3.62
2022-08-26T21:53:20.885Z,3.83
2022-08-26T21:56:24.474Z,3.30
2022-08-26T21:59:46.155Z,3.47
2022-08-26T22:02:47.583Z,3.90
2022-08-26T22:05:49.124Z,3.97
2022-08-26T22:09:31.206Z,4.22
2022-08-26T22:13:12.867Z,3.95
2022-08-26T22:16:37.954Z,3.30
2022-08-26T22:19:59.501Z,3.47
2022-08-26T22:23:22.236Z,3.50
2022-08-26T22:26:52.697Z,3.50
2022-08-26T22:30:15.117Z,4.20
2022-08-26T22:33:17.146Z,3.60
2022-08-26T22:36:23.134Z,3.37
2022-08-26T22:46:48.045Z,3.75
2022-08-26T22:50:10.145Z,3.60
2022-08-26T22:53:32.737Z,3.62
2022-08-26T22:56:57.603Z,3.72
2022-08-26T22:59:59.095Z,4.15
2022-08-26T23:03:01.994Z,4.05
2022-08-26T23:06:06.192Z,4.23
2022-08-26T23:09:08.247Z,4.18
2022-08-26T23:12:10.125Z,3.70
2022-08-26T23:15:12.191Z,4.53
2022-08-26T23:30:43.555Z,4.03
2022-08-26T23:33:45.030Z,3.92
2022-08-26T23:36:46.995Z,3.92
2022-08-26T23:44:45.655Z,3.78
2022-08-26T23:47:47.961Z,4.05
2022-08-26T23:50:49.682Z,3.83
2022-08-26T23:53:51.337Z,3.92
